Time;durP1;ratioP1;P1;durP2;ratioP2;P2;SDS_P1;SDS_P2;PMS_P1;PMS_P2;Temp;Humidity;BMP_temperature;BMP_pressure;BME280_temperature;BME280_humidity;BME280_pressure;Samples;Min_cycle;Max_cycle;Signal;HPM_P1;HPM_P2
2023/09/11 00:00:37;;;;;;;26.03;23.53;;;23.20;85.40;;;25.93;54.81;101476.84;4920365;29;20230;-66
2023/09/11 00:03:04;;;;;;;26.13;23.63;;;23.10;85.60;;;25.93;54.85;101478.72;4920540;29;20202;-64
2023/09/11 00:05:32;;;;;;;27.67;24.97;;;23.20;85.60;;;25.91;54.27;101473.56;4920420;29;20198;-65
2023/09/11 00:07:59;;;;;;;24.13;21.70;;;23.20;85.60;;;25.91;54.21;101472.78;4922975;29;20202;-65
2023/09/11 00:10:26;;;;;;;25.47;23.00;;;23.20;85.50;;;25.89;54.14;101470.31;4939174;29;20220;-65
2023/09/11 00:12:53;;;;;;;26.30;23.80;;;23.20;85.50;;;25.90;54.69;101465.75;4939261;29;20222;-64
2023/09/11 00:15:20;;;;;;;26.77;24.13;;;23.10;85.20;;;25.86;54.10;101464.63;4939553;29;20666;-65
2023/09/11 00:17:48;;;;;;;25.43;22.83;;;23.10;85.20;;;25.83;54.41;101460.56;4939094;29;20221;-66
2023/09/11 00:20:16;;;;;;;26.00;23.50;;;23.10;85.30;;;25.82;54.73;101468.91;4938956;29;20683;-65
2023/09/11 00:22:43;;;;;;;24.80;22.33;;;23.00;85.20;;;25.77;54.68;101461.59;4939179;29;20257;-65
2023/09/11 00:25:10;;;;;;;27.10;23.63;;;23.10;85.40;;;25.75;54.98;101461.03;4938722;29;20189;-65
2023/09/11 00:27:37;;;;;;;23.37;21.17;;;23.00;85.60;;;25.74;54.07;101458.59;4934638;29;20304;-65
2023/09/11 00:30:06;;;;;;;28.23;25.53;;;23.00;85.60;;;25.73;54.92;101449.69;4921647;29;20734;-65
2023/09/11 00:32:33;;;;;;;23.90;21.60;;;23.00;85.70;;;25.73;54.87;101454.25;4920255;29;20194;-65
2023/09/11 00:35:03;;;;;;;26.23;23.67;;;23.00;85.60;;;25.71;54.84;101445.63;4920192;29;20198;-69
2023/09/11 00:37:30;;;;;;;26.03;23.33;;;23.00;85.60;;;25.68;54.86;101448.81;4919462;29;20258;-65
2023/09/11 00:39:57;;;;;;;24.77;22.27;;;22.90;85.40;;;25.66;54.16;101442.88;4933848;29;20308;-65
2023/09/11 00:42:24;;;;;;;22.07;19.97;;;22.90;85.30;;;25.62;54.02;101447.16;4938903;29;20206;-65
2023/09/11 00:44:51;;;;;;;27.43;24.77;;;22.90;85.30;;;25.59;54.48;101436.88;4938694;29;20671;-65
2023/09/11 00:47:18;;;;;;;25.07;22.77;;;22.80;85.30;;;25.55;54.95;101432.00;4938732;29;20222;-65
2023/09/11 00:49:45;;;;;;;25.20;22.83;;;22.80;85.20;;;25.53;54.58;101423.34;4938320;29;20222;-65
2023/09/11 00:52:13;;;;;;;23.97;21.63;;;22.80;85.30;;;25.53;54.27;101422.56;4951288;29;20198;-65
2023/09/11 00:54:40;;;;;;;25.07;22.60;;;22.80;85.50;;;25.51;54.30;101420.09;4938653;29;20194;-65
2023/09/11 00:57:08;;;;;;;23.97;21.77;;;22.80;85.40;;;25.50;54.95;101418.50;4939122;29;20221;-66
2023/09/11 00:59:35;;;;;;;25.00;22.80;;;22.80;85.50;;;25.49;54.30;101419.53;4938311;29;20300;-65
2023/09/11 01:02:03;;;;;;;26.70;24.23;;;22.80;85.60;;;25.50;54.85;101415.78;4938794;29;20208;-66
2023/09/11 01:04:31;;;;;;;26.03;23.53;;;22.80;85.60;;;25.50;54.78;101402.31;4938688;29;20671;-65
2023/09/11 01:06:58;;;;;;;26.07;23.47;;;22.80;85.60;;;25.49;55.08;101406.06;4938576;29;20300;-65
2023/09/11 01:09:27;;;;;;;24.13;21.87;;;22.80;85.60;;;25.48;55.06;101409.03;4938123;29;20301;-66
2023/09/11 01:11:53;;;;;;;23.93;21.63;;;22.80;85.70;;;25.48;55.16;101399.03;4937725;29;20213;-65
2023/09/11 01:14:21;;;;;;;27.70;25.13;;;22.80;85.70;;;25.47;55.35;101397.41;4938385;29;20241;-65
2023/09/11 01:17:00;;;;;;;27.17;24.67;;;22.80;85.90;;;25.45;54.34;101399.56;4938426;29;20199;-65
2023/09/11 01:19:54;;;;;;;26.37;23.53;;;22.70;85.80;;;25.40;55.14;101391.41;4922293;29;20245;-65
2023/09/11 01:22:53;;;;;;;28.80;25.97;;;22.70;85.80;;;25.38;54.81;101393.53;4919617;29;20179;-65
2023/09/11 01:26:04;;;;;;;26.57;23.97;;;22.80;86.00;;;25.29;54.76;101389.66;4927017;29;20197;-65
2023/09/11 01:29:11;;;;;;;29.07;26.37;;;22.70;85.90;;;25.28;55.58;101392.63;4930509;29;20332;-65
2023/09/11 01:31:44;;;;;;;27.83;25.20;;;22.70;86.00;;;25.26;54.97;101400.97;4936405;29;20216;-64
2023/09/11 01:34:13;;;;;;;28.93;26.03;;;22.70;86.10;;;25.22;55.76;101389.06;4937831;29;20221;-65
2023/09/11 01:36:40;;;;;;;28.90;25.97;;;22.60;86.00;;;25.15;55.75;101396.53;4937318;29;20226;-65
2023/09/11 01:39:07;;;;;;;23.27;21.17;;;22.60;86.20;;;25.11;55.51;101390.03;4937454;29;20220;-65
2023/09/11 01:41:39;;;;;;;26.10;23.70;;;22.50;86.50;;;25.13;56.02;101395.97;4937800;29;20208;-64
2023/09/11 01:44:16;;;;;;;29.80;27.03;;;22.50;86.70;;;25.09;56.19;101394.88;4937551;29;20605;-65
2023/09/11 01:46:48;;;;;;;29.07;26.33;;;22.50;86.80;;;25.02;55.72;101388.88;4937912;29;20364;-65
2023/09/11 01:49:17;;;;;;;28.23;25.63;;;22.40;86.80;;;24.99;56.09;101389.38;4937129;29;20289;-65
2023/09/11 01:51:47;;;;;;;24.07;21.80;;;22.40;87.00;;;24.96;55.97;101384.47;4937655;29;20261;-65
2023/09/11 01:54:16;;;;;;;26.17;23.53;;;22.40;87.10;;;24.96;56.37;101389.88;4937485;29;20206;-65
2023/09/11 01:56:43;;;;;;;25.70;23.20;;;22.40;87.20;;;24.91;56.43;101395.22;4920486;29;20226;-65
2023/09/11 01:59:12;;;;;;;26.67;24.17;;;22.40;87.30;;;24.88;56.54;101390.34;4918140;29;20214;-65
2023/09/11 02:01:39;;;;;;;27.60;25.10;;;22.30;87.20;;;24.83;56.62;101395.66;4935399;29;20210;-65
2023/09/11 02:04:08;;;;;;;24.30;21.83;;;22.30;87.40;;;24.77;56.79;101400.16;4937396;29;20315;-65
2023/09/11 02:06:36;;;;;;;28.03;25.53;;;22.20;87.40;;;24.71;57.11;101398.47;4937275;29;20714;-65
2023/09/11 02:09:04;;;;;;;25.30;22.93;;;22.20;87.80;;;24.64;57.25;101391.63;4936952;29;20216;-65
2023/09/11 02:11:31;;;;;;;22.87;20.73;;;22.10;87.70;;;24.61;56.71;101389.44;4937459;29;20194;-65
2023/09/11 02:13:58;;;;;;;23.00;20.70;;;22.10;87.80;;;24.64;57.51;101387.06;4937511;29;20202;-64
2023/09/11 02:16:25;;;;;;;23.13;20.83;;;22.10;88.40;;;24.68;57.42;101387.38;4936457;29;20196;-65
2023/09/11 02:18:52;;;;;;;24.50;22.20;;;22.10;88.40;;;24.73;57.37;101385.56;4936918;29;20222;-65
2023/09/11 02:21:21;;;;;;;22.80;20.60;;;22.10;88.50;;;24.79;57.03;101389.16;4937161;29;20257;-65
2023/09/11 02:23:48;;;;;;;21.23;19.13;;;22.10;88.40;;;24.84;57.05;101373.06;4936373;29;20197;-65
2023/09/11 02:26:15;;;;;;;22.07;19.93;;;22.10;88.20;;;24.88;56.53;101375.00;4927794;29;20225;-65
2023/09/11 02:28:42;;;;;;;22.33;20.23;;;22.20;88.30;;;24.95;56.52;101371.28;4917619;29;20750;-67
2023/09/11 02:31:09;;;;;;;21.30;19.10;;;22.20;88.00;;;24.96;56.21;101368.31;4917888;29;20199;-65
2023/09/11 02:33:36;;;;;;;20.47;18.67;;;22.30;87.80;;;24.97;56.22;101375.34;4929227;29;20194;-65
2023/09/11 02:36:04;;;;;;;19.03;17.37;;;22.30;87.50;;;24.95;55.84;101366.69;4937021;29;20273;-65
2023/09/11 02:38:32;;;;;;;20.37;18.47;;;22.30;87.40;;;24.98;56.10;101368.06;4936336;29;20281;-65
2023/09/11 02:40:59;;;;;;;21.57;19.67;;;22.30;87.50;;;24.98;55.58;101374.28;4936769;29;20189;-65
2023/09/11 02:43:36;;;;;;;20.07;18.37;;;22.30;87.20;;;24.98;56.24;101370.78;4937138;29;20186;-65
2023/09/11 02:46:03;;;;;;;18.70;17.13;;;22.30;87.00;;;24.95;55.76;101360.50;4936901;29;20201;-66
2023/09/11 02:48:31;;;;;;;19.83;17.97;;;22.30;87.10;;;24.94;56.27;101359.69;4935677;29;20226;-64
2023/09/11 02:50:59;;;;;;;20.10;18.30;;;22.30;86.90;;;24.92;55.44;101356.44;4936523;29;20647;-63
2023/09/11 02:53:26;;;;;;;20.73;18.83;;;22.30;86.80;;;24.89;55.90;101367.69;4936973;29;20189;-65
2023/09/11 02:55:54;;;;;;;20.03;18.23;;;22.30;86.60;;;24.83;55.96;101360.66;4936201;29;20284;-63
2023/09/11 02:58:21;;;;;;;19.43;17.57;;;22.30;86.60;;;24.78;55.65;101355.19;4936039;29;20262;-65
2023/09/11 03:00:48;;;;;;;19.83;18.03;;;22.20;86.70;;;24.77;56.13;101343.59;4934750;29;20237;-65
2023/09/11 03:03:15;;;;;;;18.67;17.00;;;22.20;86.90;;;24.76;56.24;101346.53;4936400;29;20198;-65
2023/09/11 03:05:43;;;;;;;17.90;16.20;;;22.20;87.10;;;24.78;55.79;101341.75;4936301;29;20189;-65
2023/09/11 03:08:11;;;;;;;17.87;16.27;;;22.10;87.10;;;24.83;55.79;101341.78;4923168;29;20215;-67
2023/09/11 03:10:38;;;;;;;19.80;18.03;;;22.10;87.30;;;24.84;56.31;101344.22;4917025;29;20215;-65
2023/09/11 03:13:07;;;;;;;19.40;17.60;;;22.20;87.10;;;24.86;55.47;101342.09;4917335;29;20281;-65
2023/09/11 03:15:34;;;;;;;17.20;15.70;;;22.20;86.90;;;24.86;55.94;101347.47;4928773;29;20204;-66
2023/09/11 03:18:02;;;;;;;18.37;16.67;;;22.20;86.80;;;24.88;55.65;101341.84;4935878;29;20194;-64
2023/09/11 03:20:29;;;;;;;18.77;16.93;;;22.20;86.90;;;24.90;55.98;101342.41;4935711;29;20213;-65
2023/09/11 03:22:58;;;;;;;19.17;17.43;;;22.20;87.00;;;24.97;55.43;101345.69;4935885;29;20685;-64
2023/09/11 03:25:26;;;;;;;19.10;17.37;;;22.20;87.00;;;24.99;55.17;101337.34;4929559;29;20198;-64
2023/09/11 03:27:53;;;;;;;17.77;16.27;;;22.30;86.90;;;24.99;55.79;101335.47;4917682;29;20222;-64
2023/09/11 03:30:21;;;;;;;18.90;17.10;;;22.30;86.70;;;25.00;55.14;101330.91;4934130;29;20221;-64
2023/09/11 03:32:50;;;;;;;19.80;18.10;;;22.30;86.50;;;24.98;55.07;101325.78;4931016;29;20202;-66
2023/09/11 03:35:18;;;;;;;20.60;18.90;;;22.30;86.20;;;24.96;54.98;101329.81;4917468;29;20190;-64
2023/09/11 03:37:45;;;;;;;19.90;18.00;;;22.30;86.30;;;24.94;55.05;101327.34;4916973;29;20227;-66
2023/09/11 03:40:13;;;;;;;19.70;17.90;;;22.30;86.20;;;24.92;54.98;101324.09;4917103;29;20214;-64
2023/09/11 03:42:40;;;;;;;19.77;17.77;;;22.30;86.10;;;24.91;55.58;101327.88;4921514;29;20218;-65
2023/09/11 03:45:09;;;;;;;19.30;17.50;;;22.30;86.10;;;24.90;55.50;101326.25;4930144;29;20269;-65
2023/09/11 03:47:37;;;;;;;22.63;20.63;;;22.20;85.90;;;24.88;55.22;101323.00;4935369;29;20304;-65
2023/09/11 03:50:07;;;;;;;22.50;20.40;;;22.30;86.00;;;24.83;54.82;101322.94;4935456;29;20210;-65
2023/09/11 03:52:34;;;;;;;20.27;18.40;;;22.20;85.80;;;24.78;54.86;101317.50;4935881;29;20229;-65
2023/09/11 03:55:01;;;;;;;22.87;20.80;;;22.20;85.80;;;24.72;55.10;101313.09;4935287;29;20194;-65
2023/09/11 03:57:28;;;;;;;21.77;19.77;;;22.10;85.70;;;24.69;55.73;101313.59;4935652;29;20205;-65
2023/09/11 03:59:55;;;;;;;23.73;21.50;;;22.10;85.90;;;24.66;55.17;101314.09;4935346;29;20261;-64
2023/09/11 04:02:22;;;;;;;20.43;18.43;;;22.10;85.90;;;24.61;55.80;101311.34;4935787;29;20202;-64
2023/09/11 04:04:51;;;;;;;21.00;19.10;;;22.00;86.70;;;24.57;55.15;101307.53;4935769;29;20235;-65
2023/09/11 04:07:18;;;;;;;20.23;18.33;;;22.00;86.10;;;24.56;55.45;101308.59;4935477;29;20308;-65
2023/09/11 04:09:45;;;;;;;22.13;20.07;;;21.90;86.10;;;24.54;55.42;101305.34;4935605;29;20245;-66
2023/09/11 04:12:16;;;;;;;23.53;21.27;;;21.90;86.20;;;24.51;55.83;101308.56;4935512;29;20206;-65
2023/09/11 04:14:45;;;;;;;21.90;19.83;;;21.90;86.30;;;24.48;55.29;101301.00;4939121;29;20205;-65
2023/09/11 04:17:12;;;;;;;21.80;19.80;;;21.90;86.30;;;24.43;55.44;101300.94;4939165;29;20249;-65
2023/09/11 04:19:39;;;;;;;22.27;20.23;;;21.90;86.40;;;24.41;56.03;101301.19;4938932;29;20313;-65
2023/09/11 04:22:09;;;;;;;21.47;19.47;;;21.80;86.40;;;24.36;56.21;101301.13;4938959;29;20194;-65
2023/09/11 04:24:36;;;;;;;19.30;17.60;;;21.80;86.50;;;24.33;55.64;101303.50;4934657;29;20261;-65
2023/09/11 04:27:03;;;;;;;19.23;17.33;;;21.70;86.30;;;24.33;55.82;101292.72;4923133;29;20298;-66
2023/09/11 04:29:31;;;;;;;22.30;20.20;;;21.70;86.50;;;24.34;55.86;101295.19;4918564;29;20218;-65
2023/09/11 04:31:58;;;;;;;20.00;18.13;;;21.70;86.70;;;24.34;56.08;101297.88;4919430;29;20190;-64
2023/09/11 04:34:25;;;;;;;18.83;17.03;;;21.70;86.70;;;24.36;56.06;101294.94;4937050;29;20202;-65
2023/09/11 04:36:52;;;;;;;18.33;16.73;;;21.70;86.70;;;24.37;55.66;101296.53;4938023;29;20225;-65
2023/09/11 04:39:23;;;;;;;18.30;16.60;;;21.70;86.70;;;24.37;55.46;101294.66;4938526;29;20623;-65
2023/09/11 04:41:50;;;;;;;18.60;17.00;;;21.70;86.60;;;24.39;56.00;101291.75;4938311;29;20222;-64
2023/09/11 04:44:17;;;;;;;18.47;16.73;;;21.70;86.60;;;24.41;56.09;101289.59;4938315;29;20655;-65
2023/09/11 04:46:45;;;;;;;20.10;18.10;;;21.70;86.80;;;24.42;55.70;101291.22;4938520;29;20193;-64
2023/09/11 04:49:12;;;;;;;18.93;17.23;;;21.70;86.60;;;24.42;55.38;101285.84;4937991;29;20254;-66
2023/09/11 04:51:39;;;;;;;19.00;17.27;;;21.70;86.60;;;24.41;55.70;101284.22;4938343;29;20782;-70
2023/09/11 04:54:06;;;;;;;17.77;16.13;;;21.70;86.40;;;24.42;55.83;101280.44;4937131;29;20226;-64
2023/09/11 04:56:35;;;;;;;21.33;19.43;;;21.80;86.80;;;24.44;55.57;101291.81;4937826;29;20225;-63
2023/09/11 04:59:02;;;;;;;21.30;19.27;;;21.80;86.50;;;24.42;55.05;101280.44;4937728;29;20331;-65
2023/09/11 05:01:29;;;;;;;21.13;18.93;;;21.70;86.00;;;24.35;55.17;101282.53;4938238;29;20321;-65
2023/09/11 05:03:56;;;;;;;18.07;16.37;;;21.70;85.90;;;24.33;55.29;101287.34;4937506;29;20202;-65
2023/09/11 05:06:23;;;;;;;21.50;19.63;;;21.70;86.30;;;24.31;55.67;101284.09;4937768;29;20221;-65
2023/09/11 05:08:51;;;;;;;21.90;19.77;;;21.70;86.20;;;24.25;55.48;101288.59;4937227;29;20277;-65
2023/09/11 05:11:39;;;;;;;19.93;18.13;;;21.60;86.20;;;24.15;55.83;101286.59;4919099;29;20601;-65
2023/09/11 05:14:06;;;;;;;19.13;17.43;;;21.60;86.30;;;24.09;56.03;101287.63;4919117;29;20206;-64
2023/09/11 05:16:33;;;;;;;21.20;19.13;;;21.60;86.50;;;24.11;56.37;101298.94;4918716;29;20262;-65
2023/09/11 05:19:00;;;;;;;20.00;18.20;;;21.50;86.80;;;24.09;55.98;101293.00;4918023;29;20215;-66
2023/09/11 05:21:27;;;;;;;20.23;18.23;;;21.50;86.90;;;24.10;56.08;101289.22;4931207;29;20583;-65
2023/09/11 05:23:54;;;;;;;20.80;18.83;;;21.50;86.90;;;24.12;56.43;101297.06;4937073;29;20694;-65
2023/09/11 05:26:21;;;;;;;18.80;16.87;;;21.50;87.00;;;24.12;56.05;101292.50;4931802;29;20222;-67
2023/09/11 05:28:50;;;;;;;22.23;19.97;;;21.50;86.90;;;24.12;56.01;101297.88;4937154;29;20308;-65
2023/09/11 05:31:17;;;;;;;19.47;17.57;;;21.50;86.90;;;24.10;55.94;101289.22;4936790;29;20186;-66
2023/09/11 05:33:44;;;;;;;19.83;17.90;;;21.50;87.00;;;24.11;55.80;101290.03;4924962;29;20208;-66
2023/09/11 05:36:11;;;;;;;18.93;17.03;;;21.50;87.00;;;24.09;55.86;101287.63;4937162;29;20509;-67
2023/09/11 05:38:39;;;;;;;20.37;18.30;;;21.50;87.00;;;24.09;56.23;101281.41;4931455;29;20210;-66
2023/09/11 05:41:06;;;;;;;20.80;18.83;;;21.40;87.00;;;24.09;56.61;101284.94;4918693;29;20194;-66
2023/09/11 05:43:35;;;;;;;23.50;21.23;;;21.50;87.30;;;24.09;56.43;101284.94;4917692;29;20203;-65
2023/09/11 05:46:03;;;;;;;20.53;18.47;;;21.40;87.10;;;24.10;55.96;101285.75;4933494;29;20198;-66
2023/09/11 05:48:31;;;;;;;19.83;17.93;;;21.50;87.20;;;24.09;56.14;101287.63;4936142;29;20237;-64
2023/09/11 05:50:58;;;;;;;21.63;19.63;;;21.50;87.00;;;24.09;56.27;101293.00;4936712;29;20217;-66
2023/09/11 05:53:25;;;;;;;21.10;19.20;;;21.50;86.90;;;24.06;55.98;101287.25;4936761;29;20204;-67
2023/09/11 05:55:53;;;;;;;21.00;19.10;;;21.50;86.80;;;24.04;55.97;101281.31;4937007;29;20214;-65
2023/09/11 05:58:22;;;;;;;20.37;18.57;;;21.40;86.70;;;24.01;55.97;101284.53;4936527;29;20185;-66
2023/09/11 06:00:51;;;;;;;19.83;17.93;;;21.40;87.00;;;24.00;56.29;101285.56;4936538;29;20273;-63
2023/09/11 06:03:19;;;;;;;20.63;18.67;;;21.40;87.00;;;23.96;56.34;101293.31;4936204;29;20206;-66
2023/09/11 06:05:47;;;;;;;18.47;16.87;;;21.40;87.20;;;23.94;56.49;101300.81;4936478;29;20273;-64
2023/09/11 06:08:15;;;;;;;19.20;17.40;;;21.30;87.10;;;23.98;56.57;101291.22;4922170;29;20218;-65
2023/09/11 06:10:42;;;;;;;20.80;18.80;;;21.40;87.50;;;24.04;56.50;101289.38;4916798;29;20215;-66
2023/09/11 06:13:09;;;;;;;18.33;16.43;;;21.30;87.40;;;24.10;56.35;101291.13;4917082;29;20222;-66
2023/09/11 06:15:36;;;;;;;23.07;20.87;;;21.40;87.50;;;24.15;56.59;101302.75;4917984;29;20222;-66
2023/09/11 06:18:04;;;;;;;19.40;17.40;;;21.50;87.60;;;24.20;56.11;101297.44;4936302;29;20189;-66
2023/09/11 06:20:34;;;;;;;19.37;17.57;;;21.50;87.50;;;24.31;55.93;101293.00;4935838;29;20218;-66
2023/09/11 06:23:02;;;;;;;17.50;15.80;;;21.50;87.40;;;24.41;55.85;101292.31;4936272;29;20285;-68
2023/09/11 06:25:29;;;;;;;20.57;18.60;;;21.60;87.50;;;24.51;55.65;101289.72;4935802;29;20226;-66
2023/09/11 06:27:57;;;;;;;19.63;17.87;;;21.70;87.10;;;24.57;55.50;101300.28;4935917;29;20225;-66
2023/09/11 06:30:24;;;;;;;19.43;17.57;;;21.80;86.80;;;24.62;55.64;101299.53;4929333;29;20226;-65
2023/09/11 06:32:51;;;;;;;19.10;17.20;;;21.90;86.70;;;24.69;55.42;101294.75;4921985;29;20190;-66
2023/09/11 06:35:18;;;;;;;19.50;16.63;;;21.90;86.40;;;24.74;54.62;101300.19;4935648;29;20253;-66
2023/09/11 06:37:46;;;;;;;20.40;18.33;;;21.90;86.10;;;24.81;54.58;101303.53;4934970;29;20196;-66
2023/09/11 06:40:15;;;;;;;20.57;17.93;;;22.00;86.20;;;24.88;54.23;101296.06;4918316;29;20241;-66
2023/09/11 06:42:42;;;;;;;19.37;17.53;;;22.10;85.90;;;24.89;53.96;101292.28;4917205;29;20270;-65
2023/09/11 06:45:10;;;;;;;18.83;17.13;;;22.10;85.60;;;24.92;54.11;101297.16;4924695;29;20222;-65
2023/09/11 06:47:37;;;;;;;17.97;16.07;;;22.10;85.50;;;24.98;54.39;101289.94;4917261;29;20258;-65
2023/09/11 06:50:05;;;;;;;20.73;18.63;;;22.20;85.50;;;25.06;53.89;101287.59;4916307;29;20218;-65
2023/09/11 06:52:38;;;;;;;19.43;17.53;;;22.30;85.60;;;25.10;53.78;101283.31;4915798;29;20249;-65
2023/09/11 06:55:08;;;;;;;20.23;17.27;;;22.30;85.30;;;25.15;53.21;101286.03;4921279;29;20201;-65
2023/09/11 06:57:41;;;;;;;19.10;17.13;;;22.30;84.50;;;25.17;53.24;101283.94;4935974;29;20197;-65
2023/09/11 07:00:11;;;;;;;18.03;15.90;;;22.40;84.00;;;25.19;52.96;101291.75;4935270;29;20560;-67
2023/09/11 07:02:47;;;;;;;17.97;16.17;;;22.40;83.80;;;25.14;52.74;101283.59;4935925;29;20654;-66
2023/09/11 07:05:16;;;;;;;22.23;17.00;;;22.40;83.40;;;25.13;53.55;101288.19;4935844;29;20178;-65
2023/09/11 07:07:43;;;;;;;15.27;13.97;;;22.40;83.60;;;25.38;53.06;101279.50;4926276;29;20213;-65
2023/09/11 07:10:12;;;;;;;17.27;15.47;;;22.50;84.20;;;25.77;52.56;101283.53;4916625;29;20293;-67
2023/09/11 07:12:45;;;;;;;15.83;14.13;;;22.60;83.90;;;26.27;51.70;101282.97;4927407;29;20198;-65
2023/09/11 07:15:13;;;;;;;14.90;12.33;;;22.90;84.30;;;26.82;51.23;101280.44;4935920;29;20277;-65
2023/09/11 07:17:40;;;;;;;15.07;13.57;;;23.30;83.50;;;27.42;49.62;101273.44;4934260;29;20281;-65
2023/09/11 07:20:09;;;;;;;15.70;14.20;;;23.70;82.10;;;27.89;47.61;101273.84;4916417;29;20277;-65
2023/09/11 07:22:36;;;;;;;15.17;13.67;;;24.10;79.70;;;28.33;47.25;101284.81;4916396;29;20226;-65
2023/09/11 07:25:04;;;;;;;15.80;12.73;;;24.50;79.60;;;28.93;45.93;101278.19;4920300;29;20281;-65
2023/09/11 07:27:33;;;;;;;15.00;13.57;;;24.90;78.30;;;29.41;44.76;101279.16;4935560;29;20198;-65
2023/09/11 07:30:01;;;;;;;14.33;12.60;;;25.40;76.30;;;29.98;44.05;101267.41;4935605;29;20288;-65
2023/09/11 07:32:30;;;;;;;13.13;11.73;;;25.80;75.90;;;30.60;42.98;101258.97;4935561;29;20197;-65
2023/09/11 07:34:58;;;;;;;12.20;11.20;;;26.30;74.90;;;31.26;42.09;101258.72;4935781;29;20193;-66
2023/09/11 07:37:26;;;;;;;12.30;11.10;;;26.70;74.10;;;31.97;40.93;101260.13;4933932;29;20722;-65
2023/09/11 07:39:53;;;;;;;13.60;12.30;;;27.20;72.70;;;32.65;39.44;101265.44;4924017;29;20535;-65
2023/09/11 07:42:20;;;;;;;13.40;12.23;;;27.70;70.70;;;33.26;37.45;101260.09;4935435;29;20656;-66
2023/09/11 07:44:48;;;;;;;12.07;10.07;;;28.30;67.30;;;33.75;37.20;101261.00;4933568;29;20198;-65
2023/09/11 07:47:15;;;;;;;14.93;11.73;;;28.80;67.00;;;34.14;35.15;101251.94;4917081;29;20599;-65
2023/09/11 07:49:44;;;;;;;12.97;10.87;;;29.20;63.70;;;34.28;34.97;101249.88;4919719;29;20246;-66
2023/09/11 07:52:11;;;;;;;13.68;10.88;;;29.50;61.60;;;34.51;34.69;101246.66;4919987;29;20274;-64
2023/09/11 07:54:38;;;;;;;10.85;9.80;;;29.80;60.80;;;34.71;33.76;101245.22;4942750;29;20210;-65
2023/09/11 07:57:05;;;;;;;10.70;9.60;;;30.00;59.60;;;34.89;34.19;101233.13;4938704;29;20221;-66
2023/09/11 07:59:32;;;;;;;11.52;10.52;;;30.30;59.30;;;35.04;33.70;101231.84;4938202;29;20273;-67
2023/09/11 08:02:02;;;;;;;12.00;10.15;;;30.50;58.20;;;35.13;32.65;101235.34;4938803;29;20210;-64
2023/09/11 08:04:29;;;;;;;12.13;10.10;;;30.60;57.70;;;35.28;33.06;101221.09;4939044;29;20198;-65
2023/09/11 08:06:56;;;;;;;10.75;9.38;;;30.80;57.50;;;35.64;33.19;101224.19;4935565;29;20195;-67
2023/09/11 08:09:23;;;;;;;11.27;10.27;;;31.10;57.60;;;36.03;31.96;101239.47;4936861;29;20218;-67
2023/09/11 08:11:50;;;;;;;13.85;9.20;;;31.20;55.30;;;36.14;31.61;101237.13;4939073;29;20273;-67
2023/09/11 08:14:22;;;;;;;10.85;9.93;;;31.50;55.70;;;36.39;31.40;101238.88;4939342;29;20205;-65
2023/09/11 08:16:50;;;;;;;10.10;9.18;;;31.70;55.00;;;36.58;31.33;101240.03;4938975;29;20241;-67
2023/09/11 08:19:18;;;;;;;11.23;10.07;;;31.90;54.70;;;36.86;31.15;101242.97;4938347;29;20586;-66
2023/09/11 08:21:46;;;;;;;11.10;10.00;;;32.20;55.00;;;37.00;30.56;101243.50;4938386;29;20198;-66
2023/09/11 08:24:13;;;;;;;11.93;9.23;;;32.40;53.40;;;36.79;31.45;101239.19;4938672;29;20201;-65
2023/09/11 08:26:40;;;;;;;12.45;11.25;;;32.60;53.30;;;36.57;31.00;101240.34;4926211;29;20206;-65
2023/09/11 08:29:10;;;;;;;11.65;10.55;;;32.60;52.70;;;36.50;31.48;101229.13;4919512;29;20778;-65
2023/09/11 08:31:38;;;;;;;10.93;9.70;;;32.60;52.50;;;36.76;31.24;101231.59;4919603;29;20234;-65
2023/09/11 08:34:05;;;;;;;11.55;10.32;;;32.60;53.90;;;37.27;30.40;101237.38;4934703;29;20273;-65
2023/09/11 08:36:34;;;;;;;10.60;9.50;;;32.60;53.10;;;37.57;30.31;101235.25;4937910;29;20218;-66
2023/09/11 08:39:01;;;;;;;10.05;8.35;;;32.70;52.90;;;37.99;30.38;101241.28;4938091;29;20249;-65
2023/09/11 08:41:30;;;;;;;12.82;9.63;;;32.90;53.40;;;38.63;29.24;101243.19;4936837;29;20230;-65
2023/09/11 08:43:57;;;;;;;9.85;8.93;;;33.30;52.70;;;39.23;28.46;101234.63;4938441;29;20190;-64
2023/09/11 08:46:32;;;;;;;10.18;8.13;;;33.60;52.50;;;39.55;28.38;101236.22;4938251;29;20322;-64
2023/09/11 08:49:03;;;;;;;9.15;8.35;;;34.00;51.20;;;39.65;27.70;101246.75;4938143;29;20669;-66
2023/09/11 08:51:38;;;;;;;11.18;9.15;;;34.30;49.80;;;39.52;26.91;101234.16;4938316;29;20228;-65
2023/09/11 08:54:09;;;;;;;9.75;8.60;;;34.40;48.40;;;39.67;27.78;101233.38;4938182;29;20698;-65
2023/09/11 08:56:40;;;;;;;17.45;9.40;;;34.60;48.80;;;39.95;27.16;101240.69;4922564;29;20213;-64
2023/09/11 08:59:11;;;;;;;8.88;7.60;;;34.70;48.10;;;40.24;27.30;101234.66;4936994;29;20683;-65
2023/09/11 09:01:41;;;;;;;8.30;7.53;;;34.90;48.50;;;40.63;26.85;101230.72;4937923;29;20257;-65
2023/09/11 09:04:08;;;;;;;9.07;8.18;;;35.10;48.00;;;40.75;26.13;101227.81;4938024;29;20281;-65
2023/09/11 09:06:37;;;;;;;9.60;8.73;;;35.20;47.00;;;41.02;26.11;101231.47;4937145;29;20202;-66
2023/09/11 09:09:05;;;;;;;8.95;8.25;;;35.50;46.70;;;41.47;26.25;101233.44;4918486;29;20281;-66
2023/09/11 09:11:33;;;;;;;8.38;7.53;;;35.70;47.50;;;42.09;25.44;101230.06;4918506;29;20571;-65
2023/09/11 09:14:06;;;;;;;10.82;8.35;;;36.00;47.10;;;42.45;24.74;101231.28;4929004;29;20631;-65
2023/09/11 09:16:33;;;;;;;8.38;7.68;;;36.30;45.60;;;42.68;24.22;101236.69;4937639;29;20284;-65
2023/09/11 09:19:00;;;;;;;8.65;7.53;;;36.70;45.30;;;42.95;24.16;101222.38;4937425;29;20390;-66
2023/09/11 09:21:28;;;;;;;9.25;8.27;;;36.90;44.20;;;43.01;23.10;101220.03;4937427;29;20190;-66
2023/09/11 09:24:08;;;;;;;10.18;8.70;;;37.00;42.40;;;42.96;23.35;101214.84;4937048;29;20197;-66
2023/09/11 09:26:57;;;;;;;11.32;9.55;;;37.20;42.20;;;43.09;23.85;101216.16;4932017;29;20214;-65
2023/09/11 09:29:24;;;;;;;9.85;8.25;;;37.40;42.90;;;43.28;23.57;101210.34;4934811;29;20232;-66
2023/09/11 09:31:51;;;;;;;11.30;7.78;;;37.50;42.50;;;43.45;22.78;101206.94;4936913;29;20279;-66
2023/09/11 09:34:19;;;;;;;10.07;7.70;;;37.60;41.90;;;43.55;22.98;101211.78;4936388;29;20265;-66
2023/09/11 09:36:49;;;;;;;8.10;7.30;;;37.80;41.00;;;43.52;22.54;101212.53;4936394;29;20194;-66
2023/09/11 09:39:18;;;;;;;9.88;7.72;;;37.90;40.80;;;43.67;23.08;101205.88;4936605;29;20273;-66
2023/09/11 09:41:53;;;;;;;11.05;8.27;;;38.00;40.60;;;43.69;22.71;101206.34;4936600;29;20221;-66
2023/09/11 09:44:30;;;;;;;9.77;6.70;;;38.10;40.40;;;43.79;23.27;101199.25;4937060;29;20181;-66
2023/09/11 09:47:07;;;;;;;8.10;7.47;;;38.30;41.00;;;44.10;22.94;101197.84;4933255;29;20190;-66
2023/09/11 09:49:49;;;;;;;11.57;7.55;;;38.40;41.10;;;44.31;22.59;101197.91;4935389;29;20320;-66
2023/09/11 09:52:20;;;;;;;8.55;7.75;;;38.60;40.70;;;44.23;22.33;101193.50;4936605;29;20285;-65
2023/09/11 09:54:51;;;;;;;9.35;7.35;;;38.70;39.90;;;43.68;23.01;101192.84;4934690;29;20190;-65
2023/09/11 09:57:21;;;;;;;10.95;8.18;;;38.70;39.20;;;43.03;23.54;101184.41;4917606;29;20205;-65
2023/09/11 09:59:52;;;;;;;9.10;7.57;;;38.60;39.40;;;42.43;24.15;101179.03;4935229;29;20248;-65
2023/09/11 10:02:27;;;;;;;9.45;7.85;;;38.50;39.20;;;41.80;24.61;101183.75;4935452;29;20206;-64
2023/09/11 10:04:56;;;;;;;9.85;7.90;;;38.20;39.40;;;41.30;25.79;101186.94;4936188;29;20322;-65
2023/09/11 10:07:38;;;;;;;11.70;10.52;;;37.90;40.10;;;40.74;26.12;101182.03;4928319;29;20202;-68